Terminal Aerodrome Forecast
Issued by NWS Louisville, KY

Home | Current Version | Previous Version | Text Only | Print | Product List | Glossary On
Versions: 1 2 3 4 5 6 7 8 9 10 11 12 13 14 15 16 17 18 19 20
321
FTUS43 KLMK 090245 AAA
TAFSDF
TAF AMD
KSDF 090245Z 0903/1006 29011G22KT 4SM -SHSN SCT015 BKN025
      TEMPO 0903/0904 1 1/2SM -SN BKN015
     FM090500 28010KT 6SM BR VCSH OVC022
     FM091500 28011KT 6SM BR VCSH OVC025
     FM092100 28012G20KT 5SM -SHSN OVC025=

USA.gov is the U.S. government's official web portal to all federal, state and local government web resources and services.